createdAt,value
2017-12-28T00:00:33.361Z,1.42
2017-12-28T00:03:00.601Z,1.50
2017-12-28T00:05:27.854Z,2.05
2017-12-28T00:07:55.098Z,1.20
2017-12-28T00:10:22.339Z,1.37
2017-12-28T00:12:49.580Z,1.40
2017-12-28T00:15:16.833Z,1.50
2017-12-28T00:17:44.036Z,0.98
2017-12-28T00:20:11.260Z,1.40
2017-12-28T00:22:38.511Z,1.10
2017-12-28T00:25:05.763Z,1.40
2017-12-28T00:27:32.960Z,1.27
2017-12-28T00:30:00.179Z,2.12
2017-12-28T00:32:27.392Z,1.20
2017-12-28T00:34:54.613Z,1.33
2017-12-28T00:37:21.827Z,1.25
2017-12-28T00:39:49.039Z,1.30
2017-12-28T00:42:16.266Z,1.30
2017-12-28T00:44:43.479Z,1.37
2017-12-28T00:47:10.699Z,1.65
2017-12-28T00:49:37.912Z,1.50
2017-12-28T00:52:05.139Z,1.23
2017-12-28T00:54:32.359Z,1.50
2017-12-28T00:56:59.567Z,1.40
2017-12-28T00:59:26.779Z,1.37
2017-12-28T01:01:54.139Z,1.42
2017-12-28T01:04:21.354Z,1.20
2017-12-28T01:06:48.577Z,1.87
2017-12-28T01:09:15.796Z,1.80
2017-12-28T01:11:43.007Z,2.67
2017-12-28T01:14:10.220Z,1.40
2017-12-28T01:16:37.438Z,1.42
2017-12-28T01:19:04.653Z,1.45
2017-12-28T01:21:31.868Z,2.10
2017-12-28T01:23:59.081Z,1.20
2017-12-28T01:26:26.292Z,1.20
2017-12-28T01:28:53.512Z,1.67
2017-12-28T01:31:20.732Z,1.30
2017-12-28T01:33:47.947Z,1.10
2017-12-28T01:36:15.175Z,1.40
2017-12-28T01:38:42.387Z,1.52
2017-12-28T01:41:09.604Z,1.58
2017-12-28T01:43:36.832Z,1.67
2017-12-28T01:46:04.044Z,1.58
2017-12-28T01:48:31.263Z,1.60
2017-12-28T01:50:58.467Z,1.50
2017-12-28T01:53:25.683Z,1.20
2017-12-28T01:55:52.896Z,1.12
2017-12-28T01:58:20.118Z,1.25
2017-12-28T02:00:47.332Z,1.15
2017-12-28T02:03:14.552Z,1.52
2017-12-28T02:05:41.764Z,1.10
2017-12-28T02:08:08.979Z,1.30
2017-12-28T02:10:36.198Z,1.40
2017-12-28T02:13:03.407Z,2.08
2017-12-28T02:15:30.623Z,1.37
2017-12-28T02:17:57.844Z,1.60
2017-12-28T02:20:25.067Z,1.08
2017-12-28T02:22:52.282Z,0.90
2017-12-28T02:25:19.491Z,0.90
2017-12-28T02:27:46.711Z,0.75
2017-12-28T02:30:13.936Z,1.10
2017-12-28T02:32:41.170Z,1.10
2017-12-28T02:35:08.362Z,0.80
2017-12-28T02:37:35.586Z,1.02
2017-12-28T02:40:02.791Z,1.00
2017-12-28T02:42:30.021Z,0.88
2017-12-28T02:44:57.229Z,1.00
2017-12-28T02:47:24.456Z,0.88
2017-12-28T02:49:51.680Z,0.80
2017-12-28T02:52:18.893Z,0.90
2017-12-28T02:54:46.115Z,0.90
2017-12-28T02:57:13.324Z,0.98
2017-12-28T02:59:40.548Z,0.93
2017-12-28T03:02:07.753Z,0.90
2017-12-28T03:04:34.971Z,0.90
2017-12-28T03:07:02.179Z,0.80
2017-12-28T03:09:29.399Z,0.80
2017-12-28T03:11:56.610Z,0.80
2017-12-28T03:14:23.832Z,0.80
2017-12-28T03:16:51.044Z,0.90
2017-12-28T03:19:18.268Z,0.70
2017-12-28T03:21:45.480Z,0.80
2017-12-28T03:24:12.704Z,0.90
2017-12-28T03:26:39.931Z,0.80
2017-12-28T03:29:07.153Z,0.80
2017-12-28T03:31:34.360Z,0.80
2017-12-28T03:34:01.579Z,0.70
2017-12-28T03:36:28.791Z,0.80
2017-12-28T03:38:56.015Z,0.80
2017-12-28T03:41:23.225Z,1.08
2017-12-28T03:43:50.449Z,1.20
2017-12-28T03:46:17.659Z,1.10
2017-12-28T03:48:44.885Z,1.12
2017-12-28T03:51:12.087Z,1.30
2017-12-28T03:53:39.299Z,4.05
2017-12-28T03:56:06.763Z,1.37
2017-12-28T03:58:33.975Z,1.70
2017-12-28T04:01:01.200Z,1.40
2017-12-28T04:03:28.405Z,1.12
2017-12-28T04:05:55.757Z,1.52
2017-12-28T04:08:22.942Z,2.55
2017-12-28T04:10:50.173Z,1.60
2017-12-28T04:13:17.379Z,1.75
2017-12-28T04:15:44.608Z,1.95
2017-12-28T04:18:11.828Z,1.58
2017-12-28T04:20:39.044Z,1.80
2017-12-28T04:23:06.257Z,1.67
2017-12-28T04:25:33.478Z,1.50
2017-12-28T04:28:00.687Z,1.50
2017-12-28T04:30:27.908Z,1.50
2017-12-28T04:32:55.132Z,1.98
2017-12-28T04:35:22.343Z,1.83
2017-12-28T04:37:49.789Z,1.67
2017-12-28T04:40:16.991Z,1.90
2017-12-28T04:42:44.206Z,1.85
2017-12-28T04:45:11.431Z,1.80
2017-12-28T04:47:38.649Z,2.05
2017-12-28T04:50:05.863Z,2.60
2017-12-28T04:52:33.072Z,1.80
2017-12-28T04:55:00.304Z,2.22
2017-12-28T04:57:27.521Z,2.95
2017-12-28T04:59:54.728Z,2.65
2017-12-28T05:02:21.947Z,4.35
2017-12-28T05:04:49.163Z,3.37
2017-12-28T05:07:17.092Z,3.33
2017-12-28T05:09:44.300Z,4.15
2017-12-28T05:12:11.519Z,3.47
2017-12-28T05:14:38.732Z,3.97
2017-12-28T05:17:05.952Z,3.08
2017-12-28T05:19:33.164Z,3.10
2017-12-28T05:22:00.389Z,3.35
2017-12-28T05:24:27.596Z,2.42
2017-12-28T05:26:54.820Z,2.62
2017-12-28T05:29:22.034Z,3.08
2017-12-28T05:31:49.252Z,3.15
2017-12-28T05:34:16.468Z,3.17
2017-12-28T05:36:43.689Z,4.03
2017-12-28T05:39:10.908Z,3.25
2017-12-28T05:41:38.132Z,3.20
2017-12-28T05:44:05.755Z,3.72
2017-12-28T05:46:32.976Z,3.50
2017-12-28T05:49:00.192Z,4.03
2017-12-28T05:51:27.419Z,4.32
2017-12-28T05:53:54.940Z,6.10
2017-12-28T05:56:22.168Z,6.10
2017-12-28T05:58:49.377Z,4.72
2017-12-28T06:01:16.599Z,4.47
2017-12-28T06:03:43.815Z,5.93
2017-12-28T06:06:11.046Z,4.87
2017-12-28T06:08:38.256Z,5.32
2017-12-28T06:11:05.476Z,5.20
2017-12-28T06:13:32.696Z,5.60
2017-12-28T06:15:59.910Z,5.10
2017-12-28T06:18:27.131Z,5.55
2017-12-28T06:20:54.335Z,5.25
2017-12-28T06:23:21.560Z,4.90
2017-12-28T06:25:48.771Z,4.97
2017-12-28T06:28:15.992Z,5.80
2017-12-28T06:30:43.207Z,5.75
2017-12-28T06:33:10.444Z,5.12
2017-12-28T06:35:37.659Z,4.55
2017-12-28T06:38:04.875Z,6.75
2017-12-28T06:40:32.100Z,10.85
2017-12-28T06:42:59.330Z,5.68
2017-12-28T06:45:26.535Z,6.70
2017-12-28T06:47:53.761Z,9.35
2017-12-28T06:50:20.967Z,4.70
2017-12-28T06:52:48.195Z,6.45
2017-12-28T06:55:15.399Z,7.15
2017-12-28T06:57:42.623Z,6.60
2017-12-28T07:00:09.852Z,5.50
2017-12-28T07:02:37.075Z,6.55
2017-12-28T07:05:04.281Z,7.20
2017-12-28T07:07:31.514Z,13.93
2017-12-28T07:09:58.736Z,13.48
2017-12-28T07:12:25.948Z,8.00
2017-12-28T07:14:53.172Z,5.72
2017-12-28T07:17:20.396Z,4.95
2017-12-28T07:19:47.599Z,6.60
2017-12-28T07:22:14.799Z,5.62
2017-12-28T07:24:42.027Z,6.00
2017-12-28T07:27:09.234Z,5.53
2017-12-28T07:29:36.463Z,5.32
2017-12-28T07:32:03.674Z,4.75
2017-12-28T07:34:30.899Z,4.60
2017-12-28T07:36:58.112Z,3.83
2017-12-28T07:39:25.343Z,3.17
2017-12-28T07:41:52.553Z,4.00
2017-12-28T07:44:19.768Z,2.97
2017-12-28T07:46:46.985Z,3.92
2017-12-28T07:49:14.201Z,4.37
2017-12-28T07:51:41.413Z,3.92
2017-12-28T07:54:08.637Z,4.00
2017-12-28T07:56:35.848Z,4.80
2017-12-28T07:59:03.073Z,4.10
2017-12-28T08:01:30.284Z,3.40
2017-12-28T08:03:57.507Z,4.30
2017-12-28T08:06:24.712Z,3.80
2017-12-28T08:08:51.939Z,3.97
2017-12-28T08:11:19.151Z,5.35
2017-12-28T08:13:46.373Z,3.87
2017-12-28T08:16:13.602Z,3.92
2017-12-28T08:18:40.821Z,4.65
2017-12-28T08:21:08.027Z,4.97
2017-12-28T08:23:35.239Z,5.45
2017-12-28T08:26:02.461Z,6.15
2017-12-28T08:28:29.685Z,6.87
2017-12-28T08:30:56.900Z,5.68
2017-12-28T08:33:24.135Z,3.55
2017-12-28T08:35:51.342Z,4.90
2017-12-28T08:38:18.548Z,3.50
2017-12-28T08:40:45.767Z,4.72
2017-12-28T08:43:12.988Z,4.75
2017-12-28T08:45:40.199Z,4.30
2017-12-28T08:48:07.416Z,5.05
2017-12-28T08:50:34.652Z,3.97
2017-12-28T08:53:01.870Z,4.50
2017-12-28T08:55:29.080Z,3.70
2017-12-28T08:57:56.302Z,4.12
2017-12-28T09:00:23.521Z,4.70
2017-12-28T09:02:50.741Z,3.58
2017-12-28T09:05:17.969Z,2.85
2017-12-28T09:07:45.182Z,4.95
2017-12-28T09:10:12.412Z,4.20
2017-12-28T09:12:39.628Z,3.97
2017-12-28T09:15:06.850Z,4.18
2017-12-28T09:17:34.059Z,3.97
2017-12-28T09:20:01.684Z,4.55
2017-12-28T09:22:28.895Z,4.97
2017-12-28T09:24:56.107Z,4.78
2017-12-28T09:27:23.337Z,5.47
2017-12-28T09:29:50.542Z,6.00
2017-12-28T09:32:18.579Z,6.95
2017-12-28T09:34:45.801Z,8.82
2017-12-28T09:37:13.016Z,6.85
2017-12-28T09:39:40.224Z,3.50
2017-12-28T09:42:07.449Z,8.35
2017-12-28T09:44:34.672Z,6.18
2017-12-28T09:47:01.891Z,6.12
2017-12-28T09:49:29.101Z,4.72
2017-12-28T09:51:56.365Z,8.50
2017-12-28T09:54:23.557Z,8.55
2017-12-28T09:56:50.787Z,7.20
2017-12-28T09:59:17.988Z,5.93
2017-12-28T10:01:45.215Z,5.97
2017-12-28T10:04:12.425Z,6.00
2017-12-28T10:06:39.648Z,4.55
2017-12-28T10:09:06.863Z,4.70
2017-12-28T10:11:34.079Z,5.80
2017-12-28T10:14:01.301Z,6.53
2017-12-28T10:16:28.521Z,7.78
2017-12-28T10:18:55.732Z,5.78
2017-12-28T10:21:22.948Z,5.85
2017-12-28T10:23:50.163Z,4.57
2017-12-28T10:26:17.371Z,5.55
2017-12-28T10:28:44.592Z,5.12
2017-12-28T10:31:11.814Z,6.62
2017-12-28T10:33:39.032Z,6.28
2017-12-28T10:36:06.247Z,4.90
2017-12-28T10:38:33.469Z,5.03
2017-12-28T10:41:00.684Z,7.87
2017-12-28T10:43:27.911Z,6.90
2017-12-28T10:45:55.132Z,7.22
2017-12-28T10:48:22.353Z,7.40
2017-12-28T10:50:49.564Z,8.70
2017-12-28T10:53:16.788Z,6.87
2017-12-28T10:55:44.000Z,7.45
2017-12-28T10:58:11.220Z,6.47
2017-12-28T11:00:38.427Z,5.95
2017-12-28T11:03:05.648Z,8.00
2017-12-28T11:05:32.863Z,8.90
2017-12-28T11:08:00.094Z,7.80
2017-12-28T11:10:27.304Z,9.27
2017-12-28T11:12:54.528Z,7.78
2017-12-28T11:15:21.749Z,7.70
2017-12-28T11:17:48.975Z,10.25
2017-12-28T11:20:16.196Z,11.68
2017-12-28T11:22:43.444Z,9.13
2017-12-28T11:25:10.659Z,6.25
2017-12-28T11:27:37.880Z,8.50
2017-12-28T11:30:05.090Z,9.43
2017-12-28T11:32:32.316Z,6.75
2017-12-28T11:34:59.799Z,8.15
2017-12-28T11:37:27.036Z,8.10
2017-12-28T11:39:54.248Z,7.22
2017-12-28T11:42:21.460Z,7.40
2017-12-28T11:44:48.694Z,6.55
2017-12-28T11:47:15.912Z,7.65
2017-12-28T11:49:43.133Z,6.80
2017-12-28T11:52:15.989Z,7.30
2017-12-28T11:54:43.223Z,8.32
2017-12-28T11:57:13.278Z,7.65
2017-12-28T11:59:40.501Z,7.50
2017-12-28T12:02:11.180Z,7.43
2017-12-28T12:04:44.059Z,6.40
2017-12-28T12:07:12.198Z,8.15
2017-12-28T12:09:55.184Z,8.05
2017-12-28T12:12:22.391Z,6.12
2017-12-28T12:14:49.627Z,6.95
2017-12-28T12:17:16.840Z,8.75
2017-12-28T12:19:44.073Z,6.85
2017-12-28T12:22:11.283Z,6.85
2017-12-28T12:24:38.511Z,8.70
2017-12-28T12:27:05.724Z,8.18
2017-12-28T12:29:32.952Z,8.88
2017-12-28T12:32:00.175Z,9.70
2017-12-28T12:34:27.387Z,6.87
2017-12-28T12:36:54.627Z,7.10
2017-12-28T12:39:21.819Z,6.85
2017-12-28T12:41:49.040Z,6.18
2017-12-28T12:44:17.400Z,4.45
2017-12-28T12:46:44.607Z,7.07
2017-12-28T12:49:11.832Z,5.90
2017-12-28T12:51:39.043Z,5.40
2017-12-28T12:54:06.260Z,6.78
2017-12-28T12:56:33.476Z,5.30
2017-12-28T12:59:00.687Z,6.18
2017-12-28T13:01:27.913Z,7.18
2017-12-28T13:03:55.125Z,5.40
2017-12-28T13:06:22.346Z,5.65
2017-12-28T13:08:49.556Z,6.10
2017-12-28T13:11:16.777Z,6.87
2017-12-28T13:13:43.992Z,5.07
2017-12-28T13:16:11.208Z,7.12
2017-12-28T13:18:38.423Z,6.80
2017-12-28T13:21:05.645Z,7.07
2017-12-28T13:23:32.852Z,7.18
2017-12-28T13:26:00.078Z,7.43
2017-12-28T13:28:27.286Z,6.97
2017-12-28T13:30:54.503Z,7.43
2017-12-28T13:33:21.720Z,8.48
2017-12-28T13:35:48.978Z,7.68
2017-12-28T13:38:16.181Z,6.80
2017-12-28T13:40:43.406Z,6.97
2017-12-28T13:43:10.614Z,8.35
2017-12-28T13:45:37.845Z,9.02
2017-12-28T13:48:05.060Z,10.40
2017-12-28T13:50:32.288Z,8.50
2017-12-28T13:52:59.508Z,10.15
2017-12-28T13:55:26.727Z,8.75
2017-12-28T13:57:54.782Z,8.23
2017-12-28T14:00:22.004Z,7.62
2017-12-28T14:02:49.217Z,10.05
2017-12-28T14:05:16.441Z,7.10
2017-12-28T14:07:43.656Z,10.80
2017-12-28T14:10:10.892Z,10.27
2017-12-28T14:12:38.116Z,12.63
2017-12-28T14:15:05.332Z,10.02
2017-12-28T14:17:32.549Z,8.25
2017-12-28T14:19:59.772Z,10.27
2017-12-28T14:22:26.996Z,8.95
2017-12-28T14:24:54.212Z,9.65
2017-12-28T14:27:21.440Z,8.50
2017-12-28T14:29:48.648Z,7.07
2017-12-28T14:32:16.058Z,7.10
2017-12-28T14:34:43.241Z,7.18
2017-12-28T14:37:10.459Z,9.10
2017-12-28T14:39:37.680Z,8.23
2017-12-28T14:42:04.908Z,9.60
2017-12-28T14:44:32.123Z,9.43
2017-12-28T14:46:59.356Z,8.95
2017-12-28T14:49:26.604Z,13.55
2017-12-28T14:51:53.834Z,14.93
2017-12-28T14:54:21.052Z,12.45
2017-12-28T14:56:48.280Z,8.77
2017-12-28T14:59:15.496Z,9.07
2017-12-28T15:01:42.728Z,11.20
2017-12-28T15:04:09.948Z,8.32
2017-12-28T15:06:37.176Z,8.35
2017-12-28T15:09:04.397Z,6.30
2017-12-28T15:11:31.632Z,7.72
2017-12-28T15:13:58.845Z,6.12
2017-12-28T15:16:26.056Z,6.62
2017-12-28T15:18:53.281Z,7.47
2017-12-28T15:21:20.495Z,6.18
2017-12-28T15:23:47.724Z,7.57
2017-12-28T15:26:14.947Z,7.37
2017-12-28T15:28:42.167Z,9.02
2017-12-28T15:31:09.392Z,8.10
2017-12-28T15:33:36.611Z,7.97
2017-12-28T15:36:03.824Z,7.00
2017-12-28T15:38:31.048Z,6.75
2017-12-28T15:40:58.272Z,7.87
2017-12-28T15:43:25.498Z,6.18
2017-12-28T15:45:52.709Z,5.57
2017-12-28T15:48:19.932Z,5.90
2017-12-28T15:50:47.144Z,4.95
2017-12-28T15:53:14.367Z,6.80
2017-12-28T15:55:41.596Z,6.37
2017-12-28T15:58:08.826Z,6.60
2017-12-28T16:00:36.040Z,9.10
2017-12-28T16:03:03.259Z,5.45
2017-12-28T16:05:30.482Z,6.45
2017-12-28T16:07:57.699Z,5.87
2017-12-28T16:10:24.916Z,6.28
2017-12-28T16:12:52.140Z,5.95
2017-12-28T16:15:19.352Z,6.72
2017-12-28T16:17:46.583Z,6.50
2017-12-28T16:20:13.796Z,6.25
2017-12-28T16:22:41.049Z,5.55
2017-12-28T16:25:08.261Z,5.22
2017-12-28T16:27:35.472Z,6.65
2017-12-28T16:30:02.706Z,4.65
2017-12-28T16:32:29.963Z,6.57
2017-12-28T16:34:57.171Z,8.60
2017-12-28T16:37:24.383Z,4.47
2017-12-28T16:39:51.645Z,5.60
2017-12-28T16:42:18.882Z,5.32
2017-12-28T16:44:46.100Z,6.30
2017-12-28T16:47:13.341Z,7.18
2017-12-28T16:49:40.593Z,4.97
2017-12-28T16:52:07.795Z,6.43
2017-12-28T16:54:35.030Z,5.97
2017-12-28T16:57:02.285Z,4.65
2017-12-28T16:59:29.489Z,4.00
2017-12-28T17:01:56.751Z,4.82
2017-12-28T17:04:23.963Z,5.80
2017-12-28T17:06:51.227Z,4.03
2017-12-28T17:09:18.522Z,4.53
2017-12-28T17:11:45.720Z,4.80
2017-12-28T17:14:14.170Z,5.03
2017-12-28T17:16:41.425Z,10.05
2017-12-28T17:19:08.672Z,5.82
2017-12-28T17:21:35.876Z,8.85
2017-12-28T17:24:03.091Z,3.65
2017-12-28T17:26:30.300Z,6.60
2017-12-28T17:28:57.588Z,4.50
2017-12-28T17:31:24.844Z,12.82
2017-12-28T17:33:52.093Z,5.70
2017-12-28T17:36:19.356Z,5.65
2017-12-28T17:38:46.598Z,4.10
2017-12-28T17:41:13.852Z,4.05
2017-12-28T17:43:41.085Z,6.00
2017-12-28T17:46:09.196Z,5.10
2017-12-28T17:48:36.449Z,5.15
2017-12-28T17:51:03.664Z,5.12
2017-12-28T17:53:30.909Z,4.45
2017-12-28T17:55:58.119Z,4.82
2017-12-28T17:58:25.378Z,4.82
2017-12-28T18:00:52.586Z,3.17
2017-12-28T18:03:19.850Z,4.47
2017-12-28T18:05:47.108Z,4.22
2017-12-28T18:08:14.359Z,4.95
2017-12-28T18:10:41.607Z,3.92
2017-12-28T18:13:08.803Z,5.15
2017-12-28T18:15:36.290Z,4.00
2017-12-28T18:18:04.244Z,6.25
2017-12-28T18:20:31.499Z,5.85
2017-12-28T18:22:58.753Z,3.40
2017-12-28T18:25:26.015Z,6.15
2017-12-28T18:27:53.228Z,6.20
2017-12-28T18:30:26.826Z,6.28
2017-12-28T18:32:54.075Z,5.00
2017-12-28T18:35:21.330Z,4.97
2017-12-28T19:32:29.977Z,6.18
2017-12-28T19:34:57.269Z,9.13
2017-12-28T19:37:24.517Z,9.13
2017-12-28T19:39:51.775Z,6.90
2017-12-28T19:42:19.047Z,6.37
2017-12-28T19:44:46.304Z,14.15
2017-12-28T19:47:13.596Z,10.70
2017-12-28T19:49:41.140Z,9.80
2017-12-28T19:52:08.349Z,6.30
2017-12-28T19:54:35.608Z,9.73
2017-12-28T19:57:02.866Z,10.80
2017-12-28T19:59:30.118Z,9.63
2017-12-28T20:01:57.383Z,6.07
2017-12-28T20:04:24.643Z,7.82
2017-12-28T20:06:51.932Z,5.57
2017-12-28T20:09:19.179Z,6.20
2017-12-28T20:11:46.440Z,5.35
2017-12-28T20:14:13.771Z,3.58
2017-12-28T20:16:41.005Z,5.12
2017-12-28T20:19:08.279Z,3.45
2017-12-28T20:21:35.534Z,4.22
2017-12-28T20:24:03.166Z,4.20
2017-12-28T20:26:30.473Z,5.15
2017-12-28T20:28:57.707Z,5.57
2017-12-28T20:31:24.958Z,4.47
2017-12-28T20:33:52.224Z,4.40
2017-12-28T20:36:19.515Z,3.67
2017-12-28T20:38:46.811Z,3.10
2017-12-28T20:41:14.069Z,3.47
2017-12-28T20:43:41.357Z,4.95
2017-12-28T20:46:08.612Z,4.25
2017-12-28T20:48:35.875Z,3.55
2017-12-28T20:51:03.147Z,4.82
2017-12-28T20:53:30.503Z,6.07
2017-12-28T20:55:57.763Z,3.95
2017-12-28T20:58:25.012Z,4.10
2017-12-28T21:00:52.262Z,4.80
2017-12-28T21:03:19.523Z,5.25
2017-12-28T21:05:46.801Z,4.18
2017-12-28T21:08:14.058Z,10.98
2017-12-28T21:10:41.326Z,10.10
2017-12-28T21:13:08.593Z,9.07
2017-12-28T21:15:35.852Z,6.97
2017-12-28T21:18:03.157Z,7.07
2017-12-28T21:20:30.408Z,3.80
2017-12-28T21:22:57.670Z,5.35
2017-12-28T21:25:25.006Z,3.28
2017-12-28T21:27:52.292Z,4.05
2017-12-28T21:30:19.586Z,4.15
2017-12-28T21:32:46.850Z,2.95
2017-12-28T21:35:14.129Z,3.08
2017-12-28T21:37:41.391Z,3.12
2017-12-28T21:40:08.693Z,4.20
2017-12-28T21:42:35.973Z,9.98
2017-12-28T21:45:03.236Z,5.55
2017-12-28T21:47:30.496Z,5.75
2017-12-28T21:49:57.774Z,10.60
2017-12-28T21:52:25.030Z,13.60
2017-12-28T21:54:52.296Z,10.50
2017-12-28T21:57:19.561Z,9.50
2017-12-28T22:02:39.095Z,6.00
2017-12-28T22:05:06.354Z,7.10
2017-12-28T22:07:33.603Z,7.15
2017-12-28T22:10:00.877Z,10.18
2017-12-28T22:12:28.136Z,8.38
2017-12-28T22:14:55.393Z,3.10
2017-12-28T22:17:22.643Z,4.82
2017-12-28T22:19:49.903Z,3.12
2017-12-28T22:22:17.170Z,2.78
2017-12-28T22:24:44.430Z,3.05
2017-12-28T22:27:11.687Z,3.37
2017-12-28T22:29:38.951Z,3.20
2017-12-28T22:32:06.244Z,3.03
2017-12-28T22:34:33.512Z,3.87
2017-12-28T22:37:00.760Z,5.32
2017-12-28T22:39:28.023Z,4.60
2017-12-28T22:41:55.288Z,5.78
2017-12-28T22:44:22.540Z,4.82
2017-12-28T22:46:49.807Z,5.80
2017-12-28T22:49:17.064Z,5.12
2017-12-28T22:51:44.387Z,5.28
2017-12-28T22:54:11.636Z,4.90
2017-12-28T22:56:38.992Z,3.95
2017-12-28T22:59:06.254Z,3.30
2017-12-28T23:01:33.792Z,3.25
2017-12-28T23:04:01.045Z,4.07
2017-12-28T23:06:28.328Z,2.92
2017-12-28T23:08:55.586Z,3.20
2017-12-28T23:11:22.854Z,2.53
2017-12-28T23:13:50.116Z,2.72
2017-12-28T23:16:17.378Z,3.00
2017-12-28T23:18:44.640Z,3.47
2017-12-28T23:21:11.948Z,4.78
2017-12-28T23:23:39.210Z,2.85
2017-12-28T23:26:06.459Z,3.20
2017-12-28T23:28:33.707Z,3.22
2017-12-28T23:31:00.964Z,3.83
2017-12-28T23:33:28.209Z,3.72
2017-12-28T23:35:55.466Z,3.95
2017-12-28T23:38:22.738Z,3.35
2017-12-28T23:40:50.000Z,3.95
2017-12-28T23:43:17.255Z,3.28
2017-12-28T23:45:44.515Z,3.12
2017-12-28T23:48:11.767Z,2.80
2017-12-28T23:50:39.031Z,3.33
2017-12-28T23:53:06.284Z,3.12
2017-12-28T23:55:33.533Z,2.40
2017-12-28T23:58:00.795Z,3.08
